Hundvaag 1 weather for Jun 1991
Month no. 48
Obs.
Da.
Temp. Dew Point Precip. Wind
Speed
Wind gusts Cloud cover Press. Humidity Wind dir. Sunny OPT
01.06.1991 8,1   0,0             1  
02.06.1991 8,5   0,0                
03.06.1991 5,3   1,2                
04.06.1991 9,2   2,4             1  
05.06.1991 7,9   0,1             1  
06.06.1991 8,5   4,9             1  
07.06.1991 8,6   16,0                
08.06.1991 8,0   37,9             1  
09.06.1991 10,8   0,0             1  
10.06.1991 12,3   1,3             1  
11.06.1991 11,2   6,9                
12.06.1991 11,8   0,8                
13.06.1991 11,2   5,0             1  
14.06.1991 9,9   0,8             1  
15.06.1991 10,6   1,3                
16.06.1991 11,3   1,0             1  
17.06.1991 11,9   0,0             1  
18.06.1991 11,8   0,0                
19.06.1991 10,5   0,9                
20.06.1991 10,0   9,2                
21.06.1991 10,0   2,3                
22.06.1991 10,0   4,2                
23.06.1991 13,2   7,2                
24.06.1991 10,9   2,9             1  
25.06.1991 13,2   5,1             1  
26.06.1991 12,3   0,5             1  
27.06.1991 12,2   0,6                
28.06.1991 11,8   0,0             1  
29.06.1991 12,3   0,0             1  
30.06.1991 12,5   0,0             1  
                       
Avrg/Sum 10,5   112,5             17